Terminal Aerodrome Forecast
Issued by NWS

Home | Current Version | Previous Version | Graphics & Text | Print | Product List | Glossary On
Versions: 1 2 3 4 5 6 7 8 9 10 11 12 13 14 15 16 17 18 19 20 21
000
FTUS43 KABR 272132 AAA
TAFATY
TAF AMD
KATY 272132Z 2722/2818 20019G26KT P6SM SCT200
     FM280000 18011KT P6SM SCT150
     FM280500 10004KT P6SM OVC070
     FM280800 04006KT P6SM OVC020
     FM280900 03008KT P6SM OVC015
     FM281200 03010KT 3SM -SN OVC008
     FM281700 01012KT P6SM BKN008=

USA.gov is the U.S. government's official web portal to all federal, state and local government web resources and services.